My Safad — 2JAZ6 — position and weather

sailwx.info

Track history (hours):
 
Tides and Currents Weather Stations Pressure Air Temp Water Temp Dewpoint Dewpoint Depression Visibility Wind Speed Wind Dir Waves Ship Positions

My Safad

Last reported at 2017-Oct-05 22:14 UTC. Time now 2017-Nov-18 23:34 UTC.
Position N 37°11' E 025°48'.
Warning: this ship's position is 44 days out of date.

Length 37 m.

Type: Other ship. MMSI: 235114412.

Date/timePositionNaut miles runAvg speedWind from/ knotsBaromVisibWave heightAir tempDewpointWater temp
2017-Oct-05 22:14N 37°11' E 025°48'2 9.8
2017-Oct-05 22:01N 37°11' E 025°46'5 9.8
2017-Oct-05 21:29N 37°13' E 025°39'6 9.6
2017-Oct-05 20:52N 37°14' E 025°32'3 9.1
2017-Oct-05 20:30N 37°15' E 025°28'4 8.9
2017-Oct-05 20:00N 37°16' E 025°23'4 8.8
2017-Oct-05 19:30N 37°17' E 025°17'5 9.4
2017-Oct-05 19:00N 37°17' E 025°11'6 9.6
2017-Oct-05 18:25N 37°18' E 025°04'4 9.5
2017-Oct-05 18:00N 37°18' E 024°60'4 9.0
2017-Oct-05 17:30N 37°19' E 024°54'4 8.7
2017-Oct-05 17:00N 37°21' E 024°49'51 9.4
2017-Oct-05 11:37N 37°42' E 023°51'1 9.3
2017-Oct-05 11:30N 37°42' E 023°49'6 9.6
2017-Oct-05 10:54N 37°47' E 023°45'4 9.5
2017-Oct-05 10:30N 37°50' E 023°42'5 9.6
2017-Oct-05 10:00N 37°54' E 023°40'2 3.5
2017-Oct-05 09:31N 37°56' E 023°39'0 0.0
2017-Oct-05 09:01N 37°56' E 023°39'0 0.0
2017-Oct-05 08:30N 37°56' E 023°39'0 0.0
2017-Oct-05 08:00N 37°56' E 023°39'0 0.0
2017-Oct-05 07:30N 37°56' E 023°39'0 0.0
2017-Oct-05 07:00N 37°56' E 023°39'0 0.0
2017-Oct-05 06:30N 37°56' E 023°39'0 0.0
2017-Oct-05 06:00N 37°56' E 023°39'0 0.0
2017-Oct-05 05:30N 37°56' E 023°39'0 0.0
2017-Oct-05 05:00N 37°56' E 023°39'0 0.0
2017-Oct-05 04:30N 37°56' E 023°39'0 0.0
2017-Oct-05 04:00N 37°56' E 023°39'0 0.0
2017-Oct-05 03:30N 37°56' E 023°39'0 0.0
2017-Oct-05 03:00N 37°56' E 023°39'0 0.0
2017-Oct-05 02:30N 37°56' E 023°39'0 0.0
2017-Oct-05 02:00N 37°56' E 023°39'0 0.0
2017-Oct-05 01:30N 37°56' E 023°39'0 0.0
2017-Oct-05 01:00N 37°56' E 023°39'0 0.0
2017-Oct-05 00:30N 37°56' E 023°39'0 0.0
2017-Oct-05 00:00N 37°56' E 023°39'0 0.0
2017-Oct-04 23:30N 37°56' E 023°39'0 0.0
2017-Oct-04 23:00N 37°56' E 023°39'0 0.0
2017-Oct-04 22:30N 37°56' E 023°39'0 0.0
2017-Oct-04 22:00N 37°56' E 023°39'0 0.0
2017-Oct-04 21:30N 37°56' E 023°39'0 0.0
2017-Oct-04 21:00N 37°56' E 023°39'0 0.0
2017-Oct-04 20:30N 37°56' E 023°39'0 0.0
2017-Oct-04 20:00N 37°56' E 023°39'0 0.0
2017-Oct-04 19:30N 37°56' E 023°39'0 0.0
2017-Oct-04 19:00N 37°56' E 023°39'0 0.0
2017-Oct-04 18:27N 37°56' E 023°39'0 0.0
2017-Oct-04 18:00N 37°56' E 023°39'0 0.0
2017-Oct-04 17:30N 37°56' E 023°39'0 0.0
2017-Oct-04 17:00N 37°56' E 023°39'0 0.3
2017-Oct-04 16:30N 37°56' E 023°39'510.4
2017-Oct-04 16:00N 37°51' E 023°38'510.6
2017-Oct-04 15:30N 37°46' E 023°36'510.6
2017-Oct-04 15:00N 37°41' E 023°34'12 0.4
2017-Oct-03 05:03N 37°30' E 023°28'9 0.6
2017-Oct-02 15:52N 37°21' E 023°26'  
2017-Sep-29 08:30N 37°36' E 023°34'510.7
2017-Sep-29 08:00N 37°41' E 023°35'510.7
2017-Sep-29 07:30N 37°46' E 023°36'510.6
2017-Sep-29 07:00N 37°51' E 023°38'5 9.4
2017-Sep-29 06:30N 37°56' E 023°39'0 0.4
2017-Sep-29 06:00N 37°56' E 023°39'0 0.0
2017-Sep-29 05:30N 37°56' E 023°39'0 0.0
2017-Sep-29 05:00N 37°56' E 023°39'0 0.0
2017-Sep-29 04:30N 37°56' E 023°39'0 0.0
2017-Sep-29 04:00N 37°56' E 023°39'0 0.0
2017-Sep-29 03:30N 37°56' E 023°39'0 0.0
2017-Sep-29 03:00N 37°56' E 023°39'0 0.0
2017-Sep-29 02:30N 37°56' E 023°39'0 0.0
2017-Sep-29 02:00N 37°56' E 023°39'0 0.0
2017-Sep-29 01:30N 37°56' E 023°39'0 0.0
2017-Sep-29 01:00N 37°56' E 023°39'0 0.0
2017-Sep-29 00:30N 37°56' E 023°39'0 0.0
2017-Sep-29 00:00N 37°56' E 023°39'0 0.0
2017-Sep-28 23:30N 37°56' E 023°39'0 0.0
2017-Sep-28 23:00N 37°56' E 023°39'0 0.0
2017-Sep-28 22:30N 37°56' E 023°39'0 0.0
2017-Sep-28 22:00N 37°56' E 023°39'0 0.0
2017-Sep-28 21:30N 37°56' E 023°39'0 0.0
2017-Sep-28 21:00N 37°56' E 023°39'0 0.0
2017-Sep-28 20:30N 37°56' E 023°39'0 0.0
2017-Sep-28 20:00N 37°56' E 023°39'0 0.0
2017-Sep-28 19:30N 37°56' E 023°39'0 0.0
2017-Sep-28 19:00N 37°56' E 023°39'0 0.0
2017-Sep-28 18:30N 37°56' E 023°39'0 0.0
2017-Sep-28 18:00N 37°56' E 023°39'0 0.0
2017-Sep-28 17:30N 37°56' E 023°39'0 0.0
2017-Sep-28 17:00N 37°56' E 023°39'0 0.0
2017-Sep-28 16:30N 37°56' E 023°39'0 0.0
2017-Sep-28 16:00N 37°56' E 023°39'0 0.0
2017-Sep-28 15:30N 37°56' E 023°39'0 0.0
2017-Sep-28 15:00N 37°56' E 023°39'0 0.0
2017-Sep-28 14:30N 37°56' E 023°39'0 0.0
2017-Sep-28 14:00N 37°56' E 023°39'0 0.0
2017-Sep-28 13:30N 37°56' E 023°39'0 0.0
2017-Sep-28 13:00N 37°56' E 023°39'0 0.0
2017-Sep-28 12:30N 37°56' E 023°39'0 0.0
2017-Sep-28 12:00N 37°56' E 023°39'0 0.0
2017-Sep-28 11:30N 37°56' E 023°39'0 0.0
2017-Sep-28 11:00N 37°56' E 023°39'0 0.0
2017-Sep-28 10:30N 37°56' E 023°39'0 0.0
2017-Sep-28 10:00N 37°56' E 023°39'0 0.0
2017-Sep-28 09:30N 37°56' E 023°39'0 0.0
2017-Sep-28 09:00N 37°56' E 023°39'0 0.0
2017-Sep-28 08:30N 37°56' E 023°39'0 0.0
2017-Sep-28 08:00N 37°56' E 023°39'0 0.0
2017-Sep-28 07:30N 37°56' E 023°39'0 0.0
2017-Sep-28 07:00N 37°56' E 023°39'0 0.0
2017-Sep-28 06:30N 37°56' E 023°39'0 0.0
2017-Sep-28 06:00N 37°56' E 023°39'0 0.0
2017-Sep-28 05:30N 37°56' E 023°39'0 0.0
2017-Sep-28 05:00N 37°56' E 023°39'0 0.0
2017-Sep-28 04:30N 37°56' E 023°39'0 0.0
2017-Sep-28 04:00N 37°56' E 023°39'0 0.0
2017-Sep-28 03:30N 37°56' E 023°39'0 0.0
2017-Sep-28 03:00N 37°56' E 023°39'0 0.0
2017-Sep-28 02:30N 37°56' E 023°39'0 0.0
2017-Sep-28 02:00N 37°56' E 023°39'0 0.0
2017-Sep-28 01:30N 37°56' E 023°39'0 0.0
2017-Sep-28 01:00N 37°56' E 023°39'0 0.0
2017-Sep-28 00:30N 37°56' E 023°39'0 0.0
2017-Sep-28 00:00N 37°56' E 023°39'0 0.0
2017-Sep-27 23:30N 37°56' E 023°39'0 0.0
2017-Sep-27 23:00N 37°56' E 023°39'0 0.0
2017-Sep-27 22:30N 37°56' E 023°39'0 0.0
2017-Sep-27 22:00N 37°56' E 023°39'0 0.0
2017-Sep-27 21:30N 37°56' E 023°39'0 0.0
2017-Sep-27 21:00N 37°56' E 023°39'0 0.0
2017-Sep-27 20:30N 37°56' E 023°39'0 0.0
2017-Sep-27 20:00N 37°56' E 023°39'0 0.0
2017-Sep-27 19:30N 37°56' E 023°39'0 0.0
2017-Sep-27 19:00N 37°56' E 023°39'0 0.0
2017-Sep-27 18:30N 37°56' E 023°39'0 0.0
2017-Sep-27 18:00N 37°56' E 023°39'0 0.0
2017-Sep-27 17:30N 37°56' E 023°39'0 0.0
2017-Sep-27 17:00N 37°56' E 023°39'0 0.0
2017-Sep-27 16:30N 37°56' E 023°39'0 0.0
2017-Sep-27 16:00N 37°56' E 023°39'0 0.0
2017-Sep-27 15:30N 37°56' E 023°39'0 0.0
2017-Sep-27 15:00N 37°56' E 023°39'0 0.0
2017-Sep-27 14:30N 37°56' E 023°39'0 0.0
2017-Sep-27 14:00N 37°56' E 023°39'0 0.0
2017-Sep-27 13:30N 37°56' E 023°39'0 0.0
2017-Sep-27 13:00N 37°56' E 023°39'0 0.0
2017-Sep-27 12:30N 37°56' E 023°39'0 0.0
2017-Sep-27 12:00N 37°56' E 023°39'0 0.0
2017-Sep-27 11:30N 37°56' E 023°39'0 0.0
2017-Sep-27 11:00N 37°56' E 023°39'0 0.0
2017-Sep-27 10:30N 37°56' E 023°39'0 0.0
2017-Sep-27 10:00N 37°56' E 023°39'0 0.0
2017-Sep-27 09:30N 37°56' E 023°39'0 0.0
2017-Sep-27 09:00N 37°56' E 023°39'0 0.0
2017-Sep-27 08:30N 37°56' E 023°39'0 0.0
2017-Sep-27 08:00N 37°56' E 023°39'0 0.0
2017-Sep-27 07:30N 37°56' E 023°39'0 0.0
2017-Sep-27 07:00N 37°56' E 023°39'0 0.0
2017-Sep-27 06:30N 37°56' E 023°39'0 0.0
2017-Sep-27 06:00N 37°56' E 023°39'0 0.0
2017-Sep-27 05:30N 37°56' E 023°39'0 0.0
2017-Sep-27 05:00N 37°56' E 023°39'0 0.0
2017-Sep-27 04:30N 37°56' E 023°39'0 0.0
2017-Sep-27 04:00N 37°56' E 023°39'0 0.0
2017-Sep-27 03:30N 37°56' E 023°39'0 0.0
2017-Sep-27 03:00N 37°56' E 023°39'0 0.0
2017-Sep-27 02:30N 37°56' E 023°39'0 0.0
2017-Sep-27 02:00N 37°56' E 023°39'0 0.0
2017-Sep-27 01:30N 37°56' E 023°39'0 0.0
2017-Sep-27 01:00N 37°56' E 023°39'0 0.0
2017-Sep-27 00:30N 37°56' E 023°39'0 0.0
2017-Sep-27 00:00N 37°56' E 023°39'0 0.0
2017-Sep-26 23:30N 37°56' E 023°39'0 0.0
2017-Sep-26 23:00N 37°56' E 023°39'0 0.0
2017-Sep-26 22:30N 37°56' E 023°39'0 0.0
2017-Sep-26 22:00N 37°56' E 023°39'0 0.0
2017-Sep-26 21:30N 37°56' E 023°39'0 0.0
2017-Sep-26 21:00N 37°56' E 023°39'0 0.0
2017-Sep-26 20:30N 37°56' E 023°39'0 0.0
2017-Sep-26 20:00N 37°56' E 023°39'0 0.0
2017-Sep-26 19:30N 37°56' E 023°39'0 0.0
2017-Sep-26 19:00N 37°56' E 023°39'0 0.0
2017-Sep-26 18:30N 37°56' E 023°39'0 0.0
2017-Sep-26 18:00N 37°56' E 023°39'0 0.0
2017-Sep-26 17:30N 37°56' E 023°39'0 0.0
2017-Sep-26 17:00N 37°56' E 023°39'0 0.0
2017-Sep-26 16:30N 37°56' E 023°39'0 0.0
2017-Sep-26 16:00N 37°56' E 023°39'0 0.0
2017-Sep-26 15:30N 37°56' E 023°39'0 0.0
2017-Sep-26 15:00N 37°56' E 023°39'0 0.0
2017-Sep-26 14:30N 37°56' E 023°39'0 0.0
2017-Sep-26 14:00N 37°56' E 023°39'0 0.0
2017-Sep-26 13:30N 37°56' E 023°39'0 0.0
2017-Sep-26 13:00N 37°56' E 023°39'0 0.0
2017-Sep-26 12:30N 37°56' E 023°39'0 0.0
2017-Sep-26 12:00N 37°56' E 023°39'0 0.0
2017-Sep-26 11:30N 37°56' E 023°39'0 0.0
2017-Sep-26 11:00N 37°56' E 023°39'0 0.0
2017-Sep-26 10:30N 37°56' E 023°39'0 0.0
2017-Sep-26 10:00N 37°56' E 023°39'0 0.0
2017-Sep-26 09:30N 37°56' E 023°39'0 0.0
2017-Sep-26 09:00N 37°56' E 023°39'0 0.0
2017-Sep-26 08:30N 37°56' E 023°39'0 0.0
2017-Sep-26 08:00N 37°56' E 023°39'0 0.0
2017-Sep-26 07:30N 37°56' E 023°39'0 0.0
2017-Sep-26 07:00N 37°56' E 023°39'0 0.0
2017-Sep-26 06:30N 37°56' E 023°39'0 0.0
2017-Sep-26 06:00N 37°56' E 023°39'0 0.0
2017-Sep-26 05:30N 37°56' E 023°39'0 0.0
2017-Sep-26 05:00N 37°56' E 023°39'0 0.0
2017-Sep-26 04:30N 37°56' E 023°39'0 0.0
2017-Sep-26 04:00N 37°56' E 023°39'0 0.0
2017-Sep-26 03:30N 37°56' E 023°39'0 0.0
2017-Sep-26 03:00N 37°56' E 023°39'0 0.0
2017-Sep-26 02:30N 37°56' E 023°39'0 0.0
2017-Sep-26 02:00N 37°56' E 023°39'0 0.0
2017-Sep-26 01:30N 37°56' E 023°39'0 0.0
2017-Sep-26 01:00N 37°56' E 023°39'0 0.0
2017-Sep-26 00:30N 37°56' E 023°39'0 0.0
2017-Sep-26 00:00N 37°56' E 023°39'0 0.0
2017-Sep-25 23:30N 37°56' E 023°39'0 0.0
2017-Sep-25 23:00N 37°56' E 023°39'0 0.0
2017-Sep-25 22:30N 37°56' E 023°39'  
Track history (hours):
 
Tides and Currents Weather Stations Pressure Air Temp Water Temp Dewpoint Dewpoint Depression Visibility Wind Speed Wind Dir Waves Ship Positions

My Safad

Last reported at 2017-Oct-05 22:14 UTC. Time now 2017-Nov-18 23:34 UTC.
Position N 37°11' E 025°48'.
Warning: this ship's position is 44 days out of date.

Length 37 m.

Type: Other ship. MMSI: 235114412.

Date/timePositionNaut miles runAvg speedWind from/ knotsBaromVisibWave heightAir tempDewpointWater temp
2017-Oct-05 22:14N 37°11' E 025°48'2 9.8
2017-Oct-05 22:01N 37°11' E 025°46'5 9.8
2017-Oct-05 21:29N 37°13' E 025°39'6 9.6
2017-Oct-05 20:52N 37°14' E 025°32'3 9.1
2017-Oct-05 20:30N 37°15' E 025°28'4 8.9
2017-Oct-05 20:00N 37°16' E 025°23'4 8.8
2017-Oct-05 19:30N 37°17' E 025°17'5 9.4
2017-Oct-05 19:00N 37°17' E 025°11'6 9.6
2017-Oct-05 18:25N 37°18' E 025°04'4 9.5
2017-Oct-05 18:00N 37°18' E 024°60'4 9.0
2017-Oct-05 17:30N 37°19' E 024°54'4 8.7
2017-Oct-05 17:00N 37°21' E 024°49'51 9.4
2017-Oct-05 11:37N 37°42' E 023°51'1 9.3
2017-Oct-05 11:30N 37°42' E 023°49'6 9.6
2017-Oct-05 10:54N 37°47' E 023°45'4 9.5
2017-Oct-05 10:30N 37°50' E 023°42'5 9.6
2017-Oct-05 10:00N 37°54' E 023°40'2 3.5
2017-Oct-05 09:31N 37°56' E 023°39'0 0.0
2017-Oct-05 09:01N 37°56' E 023°39'0 0.0
2017-Oct-05 08:30N 37°56' E 023°39'0 0.0
2017-Oct-05 08:00N 37°56' E 023°39'0 0.0
2017-Oct-05 07:30N 37°56' E 023°39'0 0.0
2017-Oct-05 07:00N 37°56' E 023°39'0 0.0
2017-Oct-05 06:30N 37°56' E 023°39'0 0.0
2017-Oct-05 06:00N 37°56' E 023°39'0 0.0
2017-Oct-05 05:30N 37°56' E 023°39'0 0.0
2017-Oct-05 05:00N 37°56' E 023°39'0 0.0
2017-Oct-05 04:30N 37°56' E 023°39'0 0.0
2017-Oct-05 04:00N 37°56' E 023°39'0 0.0
2017-Oct-05 03:30N 37°56' E 023°39'0 0.0
2017-Oct-05 03:00N 37°56' E 023°39'0 0.0
2017-Oct-05 02:30N 37°56' E 023°39'0 0.0
2017-Oct-05 02:00N 37°56' E 023°39'0 0.0
2017-Oct-05 01:30N 37°56' E 023°39'0 0.0
2017-Oct-05 01:00N 37°56' E 023°39'0 0.0
2017-Oct-05 00:30N 37°56' E 023°39'0 0.0
2017-Oct-05 00:00N 37°56' E 023°39'0 0.0
2017-Oct-04 23:30N 37°56' E 023°39'0 0.0
2017-Oct-04 23:00N 37°56' E 023°39'0 0.0
2017-Oct-04 22:30N 37°56' E 023°39'0 0.0
2017-Oct-04 22:00N 37°56' E 023°39'0 0.0
2017-Oct-04 21:30N 37°56' E 023°39'0 0.0
2017-Oct-04 21:00N 37°56' E 023°39'0 0.0
2017-Oct-04 20:30N 37°56' E 023°39'0 0.0
2017-Oct-04 20:00N 37°56' E 023°39'0 0.0
2017-Oct-04 19:30N 37°56' E 023°39'0 0.0
2017-Oct-04 19:00N 37°56' E 023°39'0 0.0
2017-Oct-04 18:27N 37°56' E 023°39'0 0.0
2017-Oct-04 18:00N 37°56' E 023°39'0 0.0
2017-Oct-04 17:30N 37°56' E 023°39'0 0.0
2017-Oct-04 17:00N 37°56' E 023°39'0 0.3
2017-Oct-04 16:30N 37°56' E 023°39'510.4
2017-Oct-04 16:00N 37°51' E 023°38'510.6
2017-Oct-04 15:30N 37°46' E 023°36'510.6
2017-Oct-04 15:00N 37°41' E 023°34'12 0.4
2017-Oct-03 05:03N 37°30' E 023°28'9 0.6
2017-Oct-02 15:52N 37°21' E 023°26'  
2017-Sep-29 08:30N 37°36' E 023°34'510.7
2017-Sep-29 08:00N 37°41' E 023°35'510.7
2017-Sep-29 07:30N 37°46' E 023°36'510.6
2017-Sep-29 07:00N 37°51' E 023°38'5 9.4
2017-Sep-29 06:30N 37°56' E 023°39'0 0.4
2017-Sep-29 06:00N 37°56' E 023°39'0 0.0
2017-Sep-29 05:30N 37°56' E 023°39'0 0.0
2017-Sep-29 05:00N 37°56' E 023°39'0 0.0
2017-Sep-29 04:30N 37°56' E 023°39'0 0.0
2017-Sep-29 04:00N 37°56' E 023°39'0 0.0
2017-Sep-29 03:30N 37°56' E 023°39'0 0.0
2017-Sep-29 03:00N 37°56' E 023°39'0 0.0
2017-Sep-29 02:30N 37°56' E 023°39'0 0.0
2017-Sep-29 02:00N 37°56' E 023°39'0 0.0
2017-Sep-29 01:30N 37°56' E 023°39'0 0.0
2017-Sep-29 01:00N 37°56' E 023°39'0 0.0
2017-Sep-29 00:30N 37°56' E 023°39'0 0.0
2017-Sep-29 00:00N 37°56' E 023°39'0 0.0
2017-Sep-28 23:30N 37°56' E 023°39'0 0.0
2017-Sep-28 23:00N 37°56' E 023°39'0 0.0
2017-Sep-28 22:30N 37°56' E 023°39'0 0.0
2017-Sep-28 22:00N 37°56' E 023°39'0 0.0
2017-Sep-28 21:30N 37°56' E 023°39'0 0.0
2017-Sep-28 21:00N 37°56' E 023°39'0 0.0
2017-Sep-28 20:30N 37°56' E 023°39'0 0.0
2017-Sep-28 20:00N 37°56' E 023°39'0 0.0
2017-Sep-28 19:30N 37°56' E 023°39'0 0.0
2017-Sep-28 19:00N 37°56' E 023°39'0 0.0
2017-Sep-28 18:30N 37°56' E 023°39'0 0.0
2017-Sep-28 18:00N 37°56' E 023°39'0 0.0
2017-Sep-28 17:30N 37°56' E 023°39'0 0.0
2017-Sep-28 17:00N 37°56' E 023°39'0 0.0
2017-Sep-28 16:30N 37°56' E 023°39'0 0.0
2017-Sep-28 16:00N 37°56' E 023°39'0 0.0
2017-Sep-28 15:30N 37°56' E 023°39'0 0.0
2017-Sep-28 15:00N 37°56' E 023°39'0 0.0
2017-Sep-28 14:30N 37°56' E 023°39'0 0.0
2017-Sep-28 14:00N 37°56' E 023°39'0 0.0
2017-Sep-28 13:30N 37°56' E 023°39'0 0.0
2017-Sep-28 13:00N 37°56' E 023°39'0 0.0
2017-Sep-28 12:30N 37°56' E 023°39'0 0.0
2017-Sep-28 12:00N 37°56' E 023°39'0 0.0
2017-Sep-28 11:30N 37°56' E 023°39'0 0.0
2017-Sep-28 11:00N 37°56' E 023°39'0 0.0
2017-Sep-28 10:30N 37°56' E 023°39'0 0.0
2017-Sep-28 10:00N 37°56' E 023°39'0 0.0
2017-Sep-28 09:30N 37°56' E 023°39'0 0.0
2017-Sep-28 09:00N 37°56' E 023°39'0 0.0
2017-Sep-28 08:30N 37°56' E 023°39'0 0.0
2017-Sep-28 08:00N 37°56' E 023°39'0 0.0
2017-Sep-28 07:30N 37°56' E 023°39'0 0.0
2017-Sep-28 07:00N 37°56' E 023°39'0 0.0
2017-Sep-28 06:30N 37°56' E 023°39'0 0.0
2017-Sep-28 06:00N 37°56' E 023°39'0 0.0
2017-Sep-28 05:30N 37°56' E 023°39'0 0.0
2017-Sep-28 05:00N 37°56' E 023°39'0 0.0
2017-Sep-28 04:30N 37°56' E 023°39'0 0.0
2017-Sep-28 04:00N 37°56' E 023°39'0 0.0
2017-Sep-28 03:30N 37°56' E 023°39'0 0.0
2017-Sep-28 03:00N 37°56' E 023°39'0 0.0
2017-Sep-28 02:30N 37°56' E 023°39'0 0.0
2017-Sep-28 02:00N 37°56' E 023°39'0 0.0
2017-Sep-28 01:30N 37°56' E 023°39'0 0.0
2017-Sep-28 01:00N 37°56' E 023°39'0 0.0
2017-Sep-28 00:30N 37°56' E 023°39'0 0.0
2017-Sep-28 00:00N 37°56' E 023°39'0 0.0
2017-Sep-27 23:30N 37°56' E 023°39'0 0.0
2017-Sep-27 23:00N 37°56' E 023°39'0 0.0
2017-Sep-27 22:30N 37°56' E 023°39'0 0.0
2017-Sep-27 22:00N 37°56' E 023°39'0 0.0
2017-Sep-27 21:30N 37°56' E 023°39'0 0.0
2017-Sep-27 21:00N 37°56' E 023°39'0 0.0
2017-Sep-27 20:30N 37°56' E 023°39'0 0.0
2017-Sep-27 20:00N 37°56' E 023°39'0 0.0
2017-Sep-27 19:30N 37°56' E 023°39'0 0.0
2017-Sep-27 19:00N 37°56' E 023°39'0 0.0
2017-Sep-27 18:30N 37°56' E 023°39'0 0.0
2017-Sep-27 18:00N 37°56' E 023°39'0 0.0
2017-Sep-27 17:30N 37°56' E 023°39'0 0.0
2017-Sep-27 17:00N 37°56' E 023°39'0 0.0
2017-Sep-27 16:30N 37°56' E 023°39'0 0.0
2017-Sep-27 16:00N 37°56' E 023°39'0 0.0
2017-Sep-27 15:30N 37°56' E 023°39'0 0.0
2017-Sep-27 15:00N 37°56' E 023°39'0 0.0
2017-Sep-27 14:30N 37°56' E 023°39'0 0.0
2017-Sep-27 14:00N 37°56' E 023°39'0 0.0
2017-Sep-27 13:30N 37°56' E 023°39'0 0.0
2017-Sep-27 13:00N 37°56' E 023°39'0 0.0
2017-Sep-27 12:30N 37°56' E 023°39'0 0.0
2017-Sep-27 12:00N 37°56' E 023°39'0 0.0
2017-Sep-27 11:30N 37°56' E 023°39'0 0.0
2017-Sep-27 11:00N 37°56' E 023°39'0 0.0
2017-Sep-27 10:30N 37°56' E 023°39'0 0.0
2017-Sep-27 10:00N 37°56' E 023°39'0 0.0
2017-Sep-27 09:30N 37°56' E 023°39'0 0.0
2017-Sep-27 09:00N 37°56' E 023°39'0 0.0
2017-Sep-27 08:30N 37°56' E 023°39'0 0.0
2017-Sep-27 08:00N 37°56' E 023°39'0 0.0
2017-Sep-27 07:30N 37°56' E 023°39'0 0.0
2017-Sep-27 07:00N 37°56' E 023°39'0 0.0
2017-Sep-27 06:30N 37°56' E 023°39'0 0.0
2017-Sep-27 06:00N 37°56' E 023°39'0 0.0
2017-Sep-27 05:30N 37°56' E 023°39'0 0.0
2017-Sep-27 05:00N 37°56' E 023°39'0 0.0
2017-Sep-27 04:30N 37°56' E 023°39'0 0.0
2017-Sep-27 04:00N 37°56' E 023°39'0 0.0
2017-Sep-27 03:30N 37°56' E 023°39'0 0.0
2017-Sep-27 03:00N 37°56' E 023°39'0 0.0
2017-Sep-27 02:30N 37°56' E 023°39'0 0.0
2017-Sep-27 02:00N 37°56' E 023°39'0 0.0
2017-Sep-27 01:30N 37°56' E 023°39'0 0.0
2017-Sep-27 01:00N 37°56' E 023°39'0 0.0
2017-Sep-27 00:30N 37°56' E 023°39'0 0.0
2017-Sep-27 00:00N 37°56' E 023°39'0 0.0
2017-Sep-26 23:30N 37°56' E 023°39'0 0.0
2017-Sep-26 23:00N 37°56' E 023°39'0 0.0
2017-Sep-26 22:30N 37°56' E 023°39'0 0.0
2017-Sep-26 22:00N 37°56' E 023°39'0 0.0
2017-Sep-26 21:30N 37°56' E 023°39'0 0.0
2017-Sep-26 21:00N 37°56' E 023°39'0 0.0
2017-Sep-26 20:30N 37°56' E 023°39'0 0.0
2017-Sep-26 20:00N 37°56' E 023°39'0 0.0
2017-Sep-26 19:30N 37°56' E 023°39'0 0.0
2017-Sep-26 19:00N 37°56' E 023°39'0 0.0
2017-Sep-26 18:30N 37°56' E 023°39'0 0.0
2017-Sep-26 18:00N 37°56' E 023°39'0 0.0
2017-Sep-26 17:30N 37°56' E 023°39'0 0.0
2017-Sep-26 17:00N 37°56' E 023°39'0 0.0
2017-Sep-26 16:30N 37°56' E 023°39'0 0.0
2017-Sep-26 16:00N 37°56' E 023°39'0 0.0
2017-Sep-26 15:30N 37°56' E 023°39'0 0.0
2017-Sep-26 15:00N 37°56' E 023°39'0 0.0
2017-Sep-26 14:30N 37°56' E 023°39'0 0.0
2017-Sep-26 14:00N 37°56' E 023°39'0 0.0
2017-Sep-26 13:30N 37°56' E 023°39'0 0.0
2017-Sep-26 13:00N 37°56' E 023°39'0 0.0
2017-Sep-26 12:30N 37°56' E 023°39'0 0.0
2017-Sep-26 12:00N 37°56' E 023°39'0 0.0
2017-Sep-26 11:30N 37°56' E 023°39'0 0.0
2017-Sep-26 11:00N 37°56' E 023°39'0 0.0
2017-Sep-26 10:30N 37°56' E 023°39'0 0.0
2017-Sep-26 10:00N 37°56' E 023°39'0 0.0
2017-Sep-26 09:30N 37°56' E 023°39'0 0.0
2017-Sep-26 09:00N 37°56' E 023°39'0 0.0
2017-Sep-26 08:30N 37°56' E 023°39'0 0.0
2017-Sep-26 08:00N 37°56' E 023°39'0 0.0
2017-Sep-26 07:30N 37°56' E 023°39'0 0.0
2017-Sep-26 07:00N 37°56' E 023°39'0 0.0
2017-Sep-26 06:30N 37°56' E 023°39'0 0.0
2017-Sep-26 06:00N 37°56' E 023°39'0 0.0
2017-Sep-26 05:30N 37°56' E 023°39'0 0.0
2017-Sep-26 05:00N 37°56' E 023°39'0 0.0
2017-Sep-26 04:30N 37°56' E 023°39'0 0.0
2017-Sep-26 04:00N 37°56' E 023°39'0 0.0
2017-Sep-26 03:30N 37°56' E 023°39'0 0.0
2017-Sep-26 03:00N 37°56' E 023°39'0 0.0
2017-Sep-26 02:30N 37°56' E 023°39'0 0.0
2017-Sep-26 02:00N 37°56' E 023°39'0 0.0
2017-Sep-26 01:30N 37°56' E 023°39'0 0.0
2017-Sep-26 01:00N 37°56' E 023°39'0 0.0
2017-Sep-26 00:30N 37°56' E 023°39'0 0.0
2017-Sep-26 00:00N 37°56' E 023°39'0 0.0
2017-Sep-25 23:30N 37°56' E 023°39'0 0.0
2017-Sep-25 23:00N 37°56' E 023°39'0 0.0
2017-Sep-25 22:30N 37°56' E 023°39'  

Dump ship's entire track history